Time;durP1;ratioP1;P1;durP2;ratioP2;P2;SDS_P1;SDS_P2;PMS_P1;PMS_P2;Temp;Humidity;BMP_temperature;BMP_pressure;BME280_temperature;BME280_humidity;BME280_pressure;Samples;Min_cycle;Max_cycle;Signal;HPM_P1;HPM_P2
2022/08/05 00:01:31;;;;;;;3.65;3.33;;;;;;;26.89;38.61;100389.59;5035378;28;20051;-59
2022/08/05 00:04:02;;;;;;;5.25;3.47;;;;;;;26.85;38.57;100391.03;5050222;28;20126;-61
2022/08/05 00:06:34;;;;;;;4.68;3.33;;;;;;;26.80;39.18;100380.00;5042911;28;20065;-57
2022/08/05 00:09:03;;;;;;;5.35;3.10;;;;;;;26.78;39.11;100380.19;5038494;28;20058;-55
2022/08/05 00:11:39;;;;;;;8.32;3.70;;;;;;;26.76;39.49;100376.84;5037654;28;20060;-61
2022/08/05 00:14:15;;;;;;;6.40;3.50;;;;;;;26.71;39.30;100382.88;5048283;28;20140;-58
2022/08/05 00:16:44;;;;;;;5.72;3.40;;;;;;;26.68;39.11;100382.44;5036118;28;20056;-60
2022/08/05 00:19:22;;;;;;;9.93;3.85;;;;;;;26.63;39.61;100376.81;5033727;28;20044;-57
2022/08/05 00:21:58;;;;;;;6.45;3.15;;;;;;;26.58;39.64;100381.97;5040722;28;20119;-55
2022/08/05 00:24:26;;;;;;;5.18;3.42;;;;;;;26.54;39.81;100375.31;5043425;28;20045;-59
2022/08/05 00:26:58;;;;;;;9.15;3.30;;;;;;;26.50;39.64;100366.78;5047082;28;20532;-61
2022/08/05 00:29:25;;;;;;;4.22;3.60;;;;;;;26.45;39.79;100374.66;5046674;28;20052;-60
2022/08/05 00:32:05;;;;;;;6.47;3.30;;;;;;;26.41;40.15;100376.03;5038589;28;20033;-59
2022/08/05 00:34:43;;;;;;;5.75;3.40;;;;;;;26.36;40.48;100373.13;5047599;28;20041;-61
2022/08/05 00:37:30;;;;;;;5.15;3.63;;;;;;;26.29;40.53;100373.06;5034757;28;20056;-54
2022/08/05 00:40:18;;;;;;;4.97;3.45;;;;;;;26.24;40.51;100379.06;5039502;28;20044;-56
2022/08/05 00:42:59;;;;;;;9.52;4.07;;;;;;;26.21;40.74;100373.25;5044722;28;20063;-56
2022/08/05 00:45:27;;;;;;;4.70;3.70;;;;;;;26.15;41.43;100377.53;5046793;28;20049;-61
2022/08/05 00:48:11;;;;;;;5.13;3.25;;;;;;;26.11;41.07;100375.44;5043273;28;20564;-62
2022/08/05 00:50:40;;;;;;;3.45;3.15;;;;;;;26.05;40.90;100365.47;5041095;28;20215;-57
2022/08/05 00:53:10;;;;;;;6.25;3.42;;;;;;;26.01;41.31;100367.69;5047912;28;20053;-61
2022/08/05 00:55:57;;;;;;;6.22;3.30;;;;;;;25.96;41.57;100370.16;5044750;28;20088;-60
2022/08/05 00:58:25;;;;;;;9.45;4.25;;;;;;;25.91;42.02;100383.41;5038068;28;20060;-60
2022/08/05 01:00:54;;;;;;;4.68;3.80;;;;;;;25.84;42.28;100380.66;5044728;28;20067;-57
2022/08/05 01:03:21;;;;;;;5.38;3.15;;;;;;;25.80;42.42;100392.84;5046954;28;20047;-58
2022/08/05 01:05:50;;;;;;;6.45;3.58;;;;;;;25.74;42.62;100405.22;5036337;28;20075;-60
2022/08/05 01:08:21;;;;;;;6.90;4.45;;;;;;;25.66;43.30;100402.66;5045626;28;20162;-58
2022/08/05 01:11:12;;;;;;;5.43;3.70;;;;;;;25.59;43.04;100399.09;5046583;28;20123;-55
2022/08/05 01:13:56;;;;;;;4.97;3.78;;;;;;;25.55;43.03;100392.41;5040698;28;20046;-56
2022/08/05 01:17:03;;;;;;;8.05;3.60;;;;;;;25.51;42.79;100407.31;5034322;28;20168;-57
2022/08/05 01:19:40;;;;;;;11.27;4.10;;;;;;;25.42;43.34;100401.22;5036406;28;20049;-57
2022/08/05 01:23:06;;;;;;;10.68;3.85;;;;;;;25.37;43.55;100410.91;5042074;28;20045;-59
2022/08/05 01:26:05;;;;;;;6.13;3.85;;;;;;;25.32;43.52;100413.34;5046560;28;20060;-58
2022/08/05 01:28:55;;;;;;;4.95;3.42;;;;;;;25.28;43.61;100415.56;5044001;28;20064;-59
2022/08/05 01:31:52;;;;;;;6.85;3.70;;;;;;;25.22;43.97;100413.66;5027243;28;20053;-59
2022/08/05 01:34:32;;;;;;;8.65;4.35;;;;;;;25.21;43.63;100398.50;5029568;28;20052;-60
2022/08/05 01:37:16;;;;;;;7.55;4.15;;;;;;;25.19;43.91;100398.69;5036912;28;20322;-57
2022/08/05 01:39:53;;;;;;;7.97;3.38;;;;;;;25.15;43.62;100402.81;5042855;28;20080;-62
2022/08/05 01:42:26;;;;;;;7.43;3.58;;;;;;;25.11;44.17;100403.38;5045308;28;20045;-60
2022/08/05 01:44:56;;;;;;;7.32;3.40;;;;;;;25.06;44.38;100414.69;5044408;28;20064;-58
2022/08/05 01:47:27;;;;;;;7.00;3.90;;;;;;;25.00;45.55;100416.28;5046813;28;20049;-58
2022/08/05 01:50:13;;;;;;;10.00;4.65;;;;;;;24.91;45.60;100408.50;5038072;28;20056;-57
2022/08/05 01:52:43;;;;;;;8.18;4.63;;;;;;;24.85;46.29;100418.16;5047142;28;20141;-56
2022/08/05 01:55:11;;;;;;;11.57;5.35;;;;;;;24.79;46.06;100416.22;5047684;28;20488;-59
2022/08/05 01:57:42;;;;;;;10.50;4.60;;;;;;;24.70;47.39;100412.81;5050222;28;20060;-59
2022/08/05 02:00:30;;;;;;;7.93;4.20;;;;;;;24.60;47.21;100408.75;5032454;28;20049;-58
2022/08/05 02:03:02;;;;;;;7.43;3.95;;;;;;;24.54;48.09;100407.59;5033151;28;20060;-59
2022/08/05 02:05:32;;;;;;;10.98;4.90;;;;;;;24.48;48.32;100398.44;5049543;28;20049;-57
2022/08/05 02:08:02;;;;;;;7.25;4.03;;;;;;;24.40;48.73;100393.13;5049365;28;20061;-58
2022/08/05 02:10:40;;;;;;;10.38;4.07;;;;;;;24.33;49.29;100392.19;5046186;28;20565;-59
2022/08/05 02:13:16;;;;;;;7.07;4.22;;;;;;;24.22;49.81;100404.22;5050243;28;20053;-59
2022/08/05 02:15:46;;;;;;;4.45;3.78;;;;;;;24.15;50.04;100389.03;5047970;28;20047;-60
2022/08/05 02:18:23;;;;;;;6.05;3.85;;;;;;;24.10;50.69;100378.84;5046650;28;20053;-60
2022/08/05 02:21:12;;;;;;;6.88;4.05;;;;;;;24.05;51.27;100385.78;5048980;28;20068;-60
2022/08/05 02:23:43;;;;;;;7.93;4.00;;;;;;;23.98;51.05;100399.94;5045565;28;20410;-58
2022/08/05 02:26:14;;;;;;;7.38;4.07;;;;;;;23.93;51.53;100388.91;5034833;28;20083;-60
2022/08/05 02:28:44;;;;;;;22.58;4.40;;;;;;;23.86;52.58;100396.03;5048472;28;20063;-60
2022/08/05 02:31:21;;;;;;;5.18;3.80;;;;;;;23.78;52.38;100387.22;5043974;28;20167;-59
2022/08/05 02:33:54;;;;;;;8.85;3.90;;;;;;;23.70;53.25;100388.97;5040495;28;20045;-58
2022/08/05 02:36:25;;;;;;;10.15;4.55;;;;;;;23.68;52.85;100396.34;5027663;28;20057;-61
2022/08/05 02:38:54;;;;;;;8.43;3.80;;;;;;;23.65;53.12;100403.97;5038592;28;20059;-55
2022/08/05 02:41:24;;;;;;;9.05;3.60;;;;;;;23.61;53.07;100410.69;5036118;28;20055;-57
2022/08/05 02:44:06;;;;;;;4.65;4.18;;;;;;;23.57;53.20;100399.44;5027971;28;20113;-59
2022/08/05 02:46:41;;;;;;;7.00;3.50;;;;;;;23.52;53.68;100401.84;5047816;28;20059;-58
2022/08/05 02:49:25;;;;;;;;;;;;;;;23.45;54.67;100408.94;5042054;28;20383;-57
2022/08/05 02:51:53;;;;;;;8.65;4.25;;;;;;;23.37;54.20;100398.25;5045514;28;20054;-61
2022/08/05 02:54:29;;;;;;;10.00;5.15;;;;;;;23.33;54.60;100402.34;5037042;28;20489;-59
2022/08/05 02:57:06;;;;;;;7.28;3.90;;;;;;;23.23;55.28;100397.16;5035026;28;20057;-59
2022/08/05 02:59:53;;;;;;;7.28;4.07;;;;;;;23.18;56.21;100402.25;5023929;28;20061;-56
2022/08/05 03:02:24;;;;;;;9.93;4.60;;;;;;;23.15;55.97;100405.31;5032934;28;20344;-58
2022/08/05 03:04:54;;;;;;;10.52;3.72;;;;;;;23.11;55.71;100402.13;5031378;28;20053;-58
2022/08/05 03:07:22;;;;;;;10.95;3.95;;;;;;;23.09;56.25;100397.94;5036700;28;20135;-59
2022/08/05 03:12:52;;;;;;;8.43;3.80;;;;;;;23.05;56.58;100384.03;4969166;28;20545;-58
2022/08/05 03:15:21;;;;;;;7.45;3.80;;;;;;;23.04;57.42;100385.03;4972803;28;20499;-55
2022/08/05 03:17:54;;;;;;;6.95;4.40;;;;;;;23.03;57.61;100375.31;4959920;28;20387;-56
2022/08/05 03:20:22;;;;;;;9.65;4.20;;;;;;;23.02;57.83;100370.16;4971136;28;20054;-57
2022/08/05 03:22:51;;;;;;;9.52;3.60;;;;;;;22.99;57.61;100368.63;4968026;28;20058;-58
2022/08/05 03:25:21;;;;;;;9.73;3.80;;;;;;;22.96;58.09;100366.28;4974008;28;20552;-59
2022/08/05 03:28:09;;;;;;;7.43;3.70;;;;;;;22.93;58.67;100377.41;4961961;28;20128;-55
2022/08/05 03:30:40;;;;;;;6.13;3.33;;;;;;;22.91;58.83;100368.69;4977819;28;20076;-55
2022/08/05 03:33:08;;;;;;;7.43;3.90;;;;;;;22.89;58.81;100371.56;4976220;28;20047;-55
2022/08/05 03:35:35;;;;;;;7.15;3.25;;;;;;;22.88;59.02;100371.72;4976423;28;20476;-54
2022/08/05 03:38:10;;;;;;;12.20;4.28;;;;;;;22.89;58.78;100371.56;4958098;28;20055;-57
2022/08/05 03:40:44;;;;;;;8.63;3.72;;;;;;;22.88;59.01;100369.84;4959927;28;20058;-56
2022/08/05 03:43:15;;;;;;;8.40;3.65;;;;;;;22.87;59.67;100367.31;4978478;28;20059;-57
2022/08/05 03:46:03;;;;;;;6.45;3.65;;;;;;;22.88;59.00;100374.38;4976123;28;20293;-56
2022/08/05 03:48:30;;;;;;;6.97;3.58;;;;;;;22.89;59.51;100376.91;4976702;28;20081;-53
2022/08/05 03:51:03;;;;;;;5.88;3.65;;;;;;;22.88;59.63;100377.91;4957769;28;20050;-58
2022/08/05 03:53:58;;;;;;;9.95;3.80;;;;;;;22.88;60.14;100388.66;4975059;28;20057;-58
2022/08/05 03:56:45;;;;;;;8.82;4.70;;;;;;;22.89;60.05;100381.44;4960035;28;20046;-59
2022/08/05 03:59:19;;;;;;;6.32;3.60;;;;;;;22.90;59.58;100383.13;4967633;28;20054;-58
2022/08/05 04:01:48;;;;;;;9.77;3.17;;;;;;;22.92;59.79;100387.31;4939466;28;20495;-56
2022/08/05 04:04:19;;;;;;;6.18;3.45;;;;;;;22.95;59.50;100394.16;4976756;28;20050;-54
2022/08/05 04:06:47;;;;;;;4.85;3.13;;;;;;;22.99;59.46;100395.47;4955929;28;21481;-58
2022/08/05 04:09:17;;;;;;;8.35;3.25;;;;;;;23.01;59.76;100393.47;4959316;28;20051;-56
2022/08/05 04:11:54;;;;;;;7.65;3.30;;;;;;;23.02;59.46;100402.38;4976544;28;20133;-56
2022/08/05 04:14:26;;;;;;;6.78;3.70;;;;;;;23.04;60.00;100390.41;4973119;28;20073;-58
2022/08/05 04:16:58;;;;;;;6.00;3.28;;;;;;;23.07;59.53;100387.38;4973086;28;20054;-53
2022/08/05 04:19:27;;;;;;;7.63;3.88;;;;;;;23.13;59.28;100397.41;4971931;28;20054;-55
2022/08/05 04:21:54;;;;;;;5.28;3.92;;;;;;;23.17;59.95;100396.03;4954378;28;20077;-56
2022/08/05 04:24:39;;;;;;;6.32;3.88;;;;;;;23.22;60.05;100390.13;4972595;28;20613;-57
2022/08/05 04:27:18;;;;;;;4.57;3.40;;;;;;;23.28;59.09;100381.38;4963220;28;20062;-55
2022/08/05 04:30:06;;;;;;;9.63;3.47;;;;;;;23.33;60.24;100376.31;4976545;28;20050;-54
2022/08/05 04:32:35;;;;;;;5.80;4.03;;;;;;;23.34;60.24;100387.88;4972567;28;20062;-59
2022/08/05 04:35:03;;;;;;;5.68;3.67;;;;;;;23.37;60.44;100395.56;4959961;28;20050;-54
2022/08/05 04:37:32;;;;;;;4.68;3.50;;;;;;;23.45;60.17;100390.13;4956171;28;20066;-53
2022/08/05 04:40:19;;;;;;;11.82;3.65;;;;;;;23.56;59.71;100392.41;4969627;28;20039;-58
2022/08/05 04:42:46;;;;;;;8.68;3.50;;;;;;;23.65;59.56;100396.72;4962766;28;20057;-56
2022/08/05 04:45:13;;;;;;;13.18;3.80;;;;;;;23.74;59.84;100403.72;4971379;28;20147;-59
2022/08/05 04:48:09;;;;;;;10.15;3.88;;;;;;;23.78;60.03;100417.63;4977745;28;20066;-56
2022/08/05 04:50:53;;;;;;;7.53;3.88;;;;;;;23.81;60.22;100413.72;4978102;28;20058;-56
2022/08/05 04:53:35;;;;;;;8.32;3.80;;;;;;;23.86;60.15;100417.53;4968630;28;20051;-55
2022/08/05 04:56:08;;;;;;;8.43;3.55;;;;;;;23.91;59.96;100416.97;4967217;28;20063;-57
2022/08/05 04:58:55;;;;;;;10.88;3.63;;;;;;;23.99;59.61;100412.38;4975302;28;20054;-56
2022/08/05 05:01:22;;;;;;;9.82;3.47;;;;;;;24.02;59.72;100407.66;4952309;28;20051;-57
2022/08/05 05:04:09;;;;;;;9.52;3.92;;;;;;;24.05;59.67;100408.13;4964915;28;20055;-58
2022/08/05 05:06:37;;;;;;;5.80;3.08;;;;;;;24.08;60.02;100409.59;4972826;28;20515;-54
2022/08/05 05:09:11;;;;;;;6.80;3.38;;;;;;;24.11;59.80;100407.38;4979665;28;20060;-57
2022/08/05 05:11:44;;;;;;;7.32;3.72;;;;;;;24.21;59.49;100409.81;4953221;28;20053;-57
2022/08/05 05:14:23;;;;;;;6.82;3.92;;;;;;;24.26;59.37;100410.91;4963185;28;20065;-55
2022/08/05 05:17:01;;;;;;;7.50;3.75;;;;;;;24.32;59.44;100411.22;4977668;28;20486;-57
2022/08/05 05:19:29;;;;;;;9.13;3.38;;;;;;;24.39;59.37;100423.75;4972573;28;20054;-55
2022/08/05 05:22:13;;;;;;;4.43;3.42;;;;;;;24.39;59.40;100421.06;4963480;28;20251;-59
2022/08/05 05:24:52;;;;;;;3.60;3.25;;;;;;;24.44;59.78;100426.72;4975656;28;20057;-52
2022/08/05 05:27:27;;;;;;;8.43;4.00;;;;;;;24.46;59.15;100424.69;4964067;28;20503;-52
2022/08/05 05:30:14;;;;;;;25.77;4.22;;;;;;;24.51;59.40;100434.91;4975088;28;20059;-56
2022/08/05 05:32:58;;;;;;;6.80;3.88;;;;;;;24.49;59.88;100435.06;4979281;28;20173;-56
2022/08/05 05:35:30;;;;;;;6.55;3.28;;;;;;;24.54;59.75;100452.53;4979671;28;20054;-56
2022/08/05 05:38:05;;;;;;;7.30;3.92;;;;;;;24.58;60.16;100467.28;4959616;28;20061;-54
2022/08/05 05:40:41;;;;;;;10.20;3.45;;;;;;;24.53;60.16;100478.59;4959100;28;20053;-58
2022/08/05 05:43:18;;;;;;;10.40;3.72;;;;;;;24.52;60.61;100485.00;4975108;28;20046;-58
2022/08/05 05:46:06;;;;;;;10.13;4.07;;;;;;;24.39;61.13;100495.56;4974770;28;20127;-56
2022/08/05 05:48:42;;;;;;;7.45;3.95;;;;;;;24.43;61.52;100496.88;4971729;28;20138;-58
2022/08/05 05:51:10;;;;;;;9.15;4.32;;;;;;;24.42;61.26;100482.59;4970884;28;20063;-57
2022/08/05 05:53:42;;;;;;;7.45;3.80;;;;;;;24.55;60.90;100473.06;4967719;28;20047;-55
2022/08/05 05:56:26;;;;;;;6.85;3.63;;;;;;;24.66;60.29;100473.41;4970434;28;20259;-53
2022/08/05 05:59:04;;;;;;;9.07;4.35;;;;;;;24.70;60.20;100485.47;4977109;28;20169;-57
2022/08/05 06:01:35;;;;;;;7.55;3.60;;;;;;;24.69;60.56;100496.44;4980776;28;20051;-55
2022/08/05 06:04:09;;;;;;;11.55;4.10;;;;;;;24.66;60.88;100516.47;4976197;28;20086;-56
2022/08/05 06:06:43;;;;;;;13.55;4.60;;;;;;;24.59;60.82;100526.34;4966287;28;20047;-55
2022/08/05 06:09:15;;;;;;;8.88;3.97;;;;;;;24.61;60.87;100544.97;4978364;28;20425;-55
2022/08/05 06:12:02;;;;;;;8.02;3.92;;;;;;;24.74;60.65;100537.09;4975173;28;20137;-57
2022/08/05 06:14:30;;;;;;;12.02;4.70;;;;;;;24.84;60.02;100534.97;4977945;28;20054;-54
2022/08/05 06:16:57;;;;;;;11.23;4.20;;;;;;;24.89;59.98;100529.84;4974276;28;20062;-55
2022/08/05 06:19:25;;;;;;;14.20;3.80;;;;;;;24.88;59.97;100538.97;4979368;28;20531;-56
2022/08/05 06:22:06;;;;;;;10.57;3.97;;;;;;;24.90;59.74;100549.53;4957449;28;20055;-57
2022/08/05 06:24:34;;;;;;;13.02;4.93;;;;;;;24.83;60.53;100554.00;4980949;28;20062;-56
2022/08/05 06:27:01;;;;;;;16.83;4.43;;;;;;;24.59;61.61;100564.00;4976861;28;20054;-56
2022/08/05 06:29:30;;;;;;;16.58;3.75;;;;;;;24.75;61.11;100560.31;4972886;28;20059;-54
2022/08/05 06:32:15;;;;;;;13.60;3.97;;;;;;;24.61;61.61;100566.50;4979459;28;20043;-52
2022/08/05 06:34:57;;;;;;;11.65;3.20;;;;;;;24.76;61.26;100567.34;4975021;28;20059;-54
2022/08/05 06:37:26;;;;;;;25.42;3.80;;;;;;;24.79;61.24;100553.53;4966714;28;20062;-58
2022/08/05 06:40:14;;;;;;;17.83;4.13;;;;;;;24.81;61.74;100554.19;4969702;28;20065;-59
2022/08/05 06:42:48;;;;;;;17.15;3.30;;;;;;;24.84;61.84;100550.28;4972935;28;20047;-56
2022/08/05 06:45:20;;;;;;;10.25;3.50;;;;;;;25.09;61.00;100546.34;4977519;28;20054;-58
2022/08/05 06:48:07;;;;;;;5.00;3.05;;;;;;;25.32;60.15;100535.44;4972559;28;20055;-54
2022/08/05 06:50:54;;;;;;;9.13;3.03;;;;;;;25.76;59.25;100539.91;4953660;28;20078;-58
2022/08/05 06:53:22;;;;;;;14.70;4.50;;;;;;;26.10;58.08;100543.75;4979626;28;20412;-58
2022/08/05 06:55:58;;;;;;;12.35;3.38;;;;;;;26.01;57.73;100543.03;4975970;28;20511;-59
2022/08/05 06:58:26;;;;;;;12.95;3.33;;;;;;;26.23;57.08;100544.69;4967244;28;20074;-57
2022/08/05 07:01:04;;;;;;;8.68;3.10;;;;;;;26.38;56.92;100541.06;4974102;28;20530;-57
2022/08/05 07:03:32;;;;;;;10.77;4.40;;;;;;;26.41;56.66;100532.59;4978982;28;20058;-53
2022/08/05 07:06:02;;;;;;;6.78;2.72;;;;;;;26.33;57.06;100543.53;4968821;28;20054;-55
2022/08/05 07:08:43;;;;;;;11.70;3.13;;;;;;;26.48;56.41;100533.53;4974694;28;20134;-58
2022/08/05 07:11:14;;;;;;;11.57;3.17;;;;;;;26.61;55.85;100535.47;4954364;28;20047;-55
2022/08/05 07:19:34;;;;;;;;;;;;;;;26.66;55.76;100551.94;4977159;28;20468;-54
2022/08/05 07:22:21;;;;;;;9.35;2.58;;;;;;;26.75;54.99;100561.53;4976575;28;20291;-55
2022/08/05 07:24:59;;;;;;;16.33;2.78;;;;;;;26.44;56.11;100578.97;4970228;28;20338;-53
2022/08/05 07:27:48;;;;;;;11.70;2.55;;;;;;;26.54;56.27;100591.28;4973539;28;20061;-53
2022/08/05 07:30:30;;;;;;;10.80;2.55;;;;;;;26.68;55.46;100612.78;4969946;28;20217;-55
2022/08/05 07:33:03;;;;;;;10.27;2.83;;;;;;;26.68;55.73;100606.56;4976929;28;20427;-53
2022/08/05 07:35:36;;;;;;;13.73;2.95;;;;;;;26.55;55.53;100591.09;4970577;28;20138;-54
2022/08/05 07:38:24;;;;;;;9.90;2.40;;;;;;;26.60;55.53;100591.31;4973938;28;20280;-57
2022/08/05 07:41:05;;;;;;;8.13;2.72;;;;;;;26.68;55.37;100587.66;4975129;28;20058;-52
2022/08/05 07:43:54;;;;;;;7.03;2.33;;;;;;;26.54;55.08;100594.81;4967378;28;20059;-55
2022/08/05 07:46:27;;;;;;;10.98;2.97;;;;;;;26.36;56.41;100591.72;4974915;28;20061;-55
2022/08/05 07:48:56;;;;;;;6.38;2.50;;;;;;;26.43;56.54;100590.78;4986202;28;20065;-54
2022/08/05 07:51:33;;;;;;;6.00;2.53;;;;;;;26.43;55.87;100574.59;4984976;28;20054;-55
2022/08/05 07:54:05;;;;;;;8.20;2.40;;;;;;;26.26;55.22;100584.81;4969896;28;20055;-55
2022/08/05 07:56:36;;;;;;;7.85;2.35;;;;;;;26.19;55.55;100591.16;4972071;28;20105;-54
2022/08/05 07:59:23;;;;;;;5.85;2.60;;;;;;;26.12;56.06;100599.19;4964350;28;20526;-53
2022/08/05 08:02:10;;;;;;;6.95;2.38;;;;;;;26.02;56.39;100587.88;4952483;28;20059;-57
2022/08/05 08:04:45;;;;;;;6.30;2.38;;;;;;;25.98;56.49;100560.47;4977055;28;20047;-56
2022/08/05 08:07:13;;;;;;;5.78;2.78;;;;;;;25.93;56.69;100575.53;4973300;28;20825;-53
2022/08/05 08:09:42;;;;;;;6.07;2.30;;;;;;;25.86;57.08;100586.25;4970953;28;20050;-56
2022/08/05 08:12:09;;;;;;;10.95;2.47;;;;;;;25.75;57.30;100594.81;4975714;28;20150;-58
2022/08/05 08:14:56;;;;;;;4.45;2.22;;;;;;;25.70;57.88;100571.13;4977805;28;20055;-57
2022/08/05 08:17:29;;;;;;;5.03;2.50;;;;;;;25.70;58.15;100576.50;4968876;28;20058;-53
2022/08/05 08:19:56;;;;;;;10.13;2.45;;;;;;;25.72;57.66;100587.94;4972353;28;20430;-58
2022/08/05 08:22:49;;;;;;;10.50;2.58;;;;;;;25.56;58.83;100573.84;4976721;28;20306;-55
2022/08/05 08:25:17;;;;;;;5.97;2.58;;;;;;;25.72;59.00;100557.47;4972289;28;20535;-54
2022/08/05 08:28:04;;;;;;;5.63;2.30;;;;;;;25.95;59.17;100568.94;4974813;28;20062;-55
2022/08/05 08:30:37;;;;;;;12.65;3.53;;;;;;;26.13;58.47;100563.09;4972041;28;20088;-54
2022/08/05 08:33:16;;;;;;;5.15;2.28;;;;;;;26.12;57.26;100561.44;4976946;28;20046;-57
2022/08/05 08:35:45;;;;;;;4.70;2.40;;;;;;;26.08;57.39;100546.66;4971650;28;20054;-56
2022/08/05 08:38:29;;;;;;;6.90;2.10;;;;;;;25.96;56.96;100553.56;4977735;28;20047;-54
2022/08/05 08:41:05;;;;;;;4.40;1.98;;;;;;;25.88;56.75;100581.50;4971379;28;20575;-58
2022/08/05 08:43:34;;;;;;;6.03;2.33;;;;;;;25.88;56.87;100599.56;4976767;28;20054;-59
2022/08/05 08:46:23;;;;;;;10.90;2.22;;;;;;;25.69;56.10;100607.19;4969923;28;20145;-56
2022/08/05 08:48:51;;;;;;;7.18;2.20;;;;;;;25.62;57.03;100616.22;4969866;28;20422;-53
2022/08/05 08:51:39;;;;;;;9.15;2.42;;;;;;;25.63;56.34;100620.59;4970814;28;20625;-57
2022/08/05 08:54:26;;;;;;;3.88;1.85;;;;;;;25.61;56.15;100618.09;4964629;28;20227;-58
2022/08/05 08:56:54;;;;;;;10.52;3.45;;;;;;;25.57;56.52;100615.94;4978667;28;20133;-57
2022/08/05 08:59:22;;;;;;;6.60;2.05;;;;;;;25.53;56.24;100610.09;4948282;28;20097;-52
2022/08/05 09:01:54;;;;;;;4.88;2.00;;;;;;;25.51;56.56;100601.38;4977485;28;20355;-57
2022/08/05 09:04:27;;;;;;;4.43;1.92;;;;;;;25.48;56.16;100617.91;4953018;28;20612;-57
2022/08/05 09:06:56;;;;;;;3.70;2.58;;;;;;;25.47;56.86;100637.81;4978554;28;20050;-53
2022/08/05 09:09:24;;;;;;;3.47;2.00;;;;;;;25.51;57.47;100649.91;4974594;28;20066;-53
2022/08/05 09:12:03;;;;;;;12.98;2.28;;;;;;;25.59;57.17;100640.88;4972942;28;20069;-58
2022/08/05 09:14:46;;;;;;;11.85;2.65;;;;;;;25.42;59.37;100641.06;5036857;23;20175;-57
2022/08/05 09:17:31;;;;;;;8.13;2.22;;;;;;;25.54;59.47;100644.13;5051138;28;20113;-58
2022/08/05 09:20:10;;;;;;;6.65;2.47;;;;;;;25.48;60.23;100647.56;5066073;28;20063;-58
2022/08/05 09:23:04;;;;;;;8.50;1.95;;;;;;;25.52;59.85;100651.56;5061945;28;20109;-58
2022/08/05 09:25:36;;;;;;;8.57;2.60;;;;;;;25.70;58.76;100649.31;5017577;28;20037;-58
2022/08/05 09:28:26;;;;;;;8.45;2.72;;;;;;;25.94;58.73;100656.28;5017552;28;20604;-55
2022/08/05 09:31:04;;;;;;;7.30;2.30;;;;;;;26.21;58.44;100657.41;5026717;28;20072;-55
2022/08/05 09:33:59;;;;;;;13.45;3.78;;;;;;;26.43;57.23;100654.69;5018017;28;20049;-53
2022/08/05 09:36:41;;;;;;;11.93;2.97;;;;;;;26.40;57.42;100649.69;5022897;28;20112;-56
2022/08/05 09:39:23;;;;;;;6.57;2.10;;;;;;;26.45;57.20;100655.38;5025371;28;20064;-57
2022/08/05 09:42:11;;;;;;;8.35;2.03;;;;;;;26.51;57.02;100660.81;5022866;28;20057;-55
2022/08/05 09:44:51;;;;;;;9.85;3.30;;;;;;;26.39;56.18;100648.03;5021471;28;20113;-57
2022/08/05 09:47:26;;;;;;;4.18;2.22;;;;;;;26.31;56.20;100653.56;5013356;28;20054;-58
2022/08/05 09:50:13;;;;;;;6.05;2.00;;;;;;;26.05;56.75;100659.50;5026968;28;20045;-56
2022/08/05 09:53:00;;;;;;;3.05;1.83;;;;;;;25.91;57.14;100663.91;5026631;28;20057;-58
2022/08/05 09:55:34;;;;;;;10.63;2.47;;;;;;;25.83;57.99;100658.63;5026117;28;20160;-59
2022/08/05 09:58:22;;;;;;;3.88;2.17;;;;;;;25.69;57.94;100615.28;5026015;28;20037;-58
2022/08/05 10:01:01;;;;;;;5.97;1.90;;;;;;;25.62;58.41;100627.00;5008277;28;20057;-58
2022/08/05 10:03:58;;;;;;;5.93;2.10;;;;;;;25.54;57.81;100613.66;5031691;28;20046;-57
2022/08/05 10:06:26;;;;;;;10.40;1.98;;;;;;;25.50;58.56;100595.16;5027409;28;20124;-57
2022/08/05 10:08:55;;;;;;;2.47;1.70;;;;;;;25.47;58.67;100592.00;5019712;28;20066;-59
2022/08/05 10:11:22;;;;;;;7.78;2.28;;;;;;;25.52;59.78;100585.00;5017835;28;20140;-57
2022/08/05 10:13:57;;;;;;;3.92;2.20;;;;;;;25.50;59.85;100578.16;5028349;28;20064;-56
2022/08/05 10:16:34;;;;;;;3.65;2.10;;;;;;;25.54;59.90;100570.53;5035753;28;20549;-59
2022/08/05 10:19:12;;;;;;;4.10;2.03;;;;;;;25.58;60.53;100585.25;5020970;28;20053;-57
2022/08/05 10:21:39;;;;;;;4.60;2.22;;;;;;;25.61;61.08;100580.34;5023516;28;20049;-58
2022/08/05 10:24:11;;;;;;;3.83;1.67;;;;;;;25.71;60.47;100594.38;5022139;28;20065;-59
2022/08/05 10:26:43;;;;;;;4.97;2.50;;;;;;;25.78;60.58;100618.75;5015388;28;20084;-57
2022/08/05 10:29:21;;;;;;;3.53;2.05;;;;;;;25.84;60.54;100625.22;5013763;28;20273;-57
2022/08/05 10:32:08;;;;;;;8.73;2.90;;;;;;;25.83;59.61;100607.38;5025444;28;20433;-58
2022/08/05 10:34:57;;;;;;;4.55;1.92;;;;;;;25.82;59.48;100636.22;5025930;28;20060;-58
2022/08/05 10:37:29;;;;;;;7.70;2.35;;;;;;;25.69;59.87;100646.81;5019181;28;20487;-59
2022/08/05 10:40:54;;;;;;;5.50;2.45;;;;;;;25.50;60.82;100669.78;5024610;28;20049;-56
2022/08/05 10:43:44;;;;;;;5.28;2.42;;;;;;;25.37;61.24;100673.13;4977894;28;20545;-54
2022/08/05 10:46:13;;;;;;;4.68;2.30;;;;;;;25.23;61.16;100664.03;5013926;28;20057;-59
2022/08/05 10:48:44;;;;;;;5.00;2.00;;;;;;;25.27;61.55;100669.06;5022538;28;20410;-56
2022/08/05 10:51:24;;;;;;;3.38;2.40;;;;;;;25.33;61.59;100652.13;5017904;28;20417;-59
2022/08/05 10:54:01;;;;;;;3.20;2.03;;;;;;;25.46;61.51;100636.97;5023766;28;20529;-58
2022/08/05 10:56:55;;;;;;;6.47;1.98;;;;;;;25.56;61.17;100636.69;5023593;28;20155;-58
2022/08/05 10:59:27;;;;;;;4.00;2.25;;;;;;;25.60;62.70;100643.38;5007711;28;20523;-55
2022/08/05 11:02:14;;;;;;;3.65;2.05;;;;;;;25.32;61.18;100655.84;5012534;28;20060;-58
2022/08/05 11:05:08;;;;;;;6.95;1.98;;;;;;;25.23;61.85;100661.34;5016717;28;20502;-55
2022/08/05 11:08:05;;;;;;;2.37;1.53;;;;;;;25.49;60.97;100643.88;5017686;28;20057;-57
2022/08/05 11:10:52;;;;;;;3.55;2.35;;;;;;;25.72;58.94;100628.41;5020433;28;20414;-57
2022/08/05 11:13:42;;;;;;;3.75;1.98;;;;;;;25.97;58.83;100633.47;5015342;28;20050;-55
2022/08/05 11:16:24;;;;;;;7.40;2.45;;;;;;;26.24;58.70;100624.63;5024941;28;20050;-58
2022/08/05 11:19:28;;;;;;;4.57;2.42;;;;;;;26.58;58.03;100631.19;5017805;28;20053;-57
2022/08/05 11:22:38;;;;;;;4.85;2.58;;;;;;;26.89;57.62;100636.22;5013200;28;20421;-57
2022/08/05 11:25:37;;;;;;;7.53;2.25;;;;;;;27.45;56.94;100651.56;5010796;28;20053;-57
2022/08/05 11:28:24;;;;;;;2.92;1.90;;;;;;;27.81;53.07;100656.75;5008851;28;20053;-63
2022/08/05 11:31:00;;;;;;;5.63;2.45;;;;;;;28.04;52.19;100659.09;5015546;28;20060;-57
2022/08/05 11:33:45;;;;;;;3.33;1.90;;;;;;;27.98;49.70;100659.94;5005547;28;20053;-53
2022/08/05 11:36:19;;;;;;;4.75;1.83;;;;;;;27.98;49.60;100659.94;5016698;28;20076;-57
2022/08/05 11:39:00;;;;;;;4.35;1.90;;;;;;;28.51;48.96;100660.06;5017476;28;20056;-55
2022/08/05 11:41:30;;;;;;;3.33;1.73;;;;;;;29.05;48.51;100661.75;5016942;28;20069;-57
2022/08/05 11:44:19;;;;;;;3.58;2.00;;;;;;;29.49;47.03;100669.13;5017652;28;20054;-58
2022/08/05 11:47:06;;;;;;;6.18;2.20;;;;;;;29.30;46.29;100664.63;5011108;28;20064;-57
2022/08/05 11:49:41;;;;;;;4.00;2.78;;;;;;;29.44;45.77;100670.84;5032389;28;20054;-57
2022/08/05 11:52:09;;;;;;;3.92;2.20;;;;;;;29.56;46.44;100663.75;5033823;28;20095;-55
2022/08/05 11:54:38;;;;;;;2.83;2.03;;;;;;;30.11;45.71;100663.28;5015084;28;20046;-57
2022/08/05 11:57:07;;;;;;;5.38;2.10;;;;;;;30.59;45.07;100668.22;5017602;28;20068;-53
2022/08/05 11:59:52;;;;;;;;;;;;;;;30.87;44.15;100662.34;5014212;28;20285;-57
2022/08/05 12:02:25;;;;;;;2.80;1.88;;;;;;;30.98;43.29;100670.63;5018582;28;19921;-52
2022/08/05 12:05:00;;;;;;;2.92;1.70;;;;;;;30.33;43.84;100664.63;5015998;28;20233;-57
2022/08/05 12:07:37;;;;;;;2.50;2.08;;;;;;;30.27;44.45;100660.91;5012257;28;20514;-57
2022/08/05 12:10:30;;;;;;;6.63;2.38;;;;;;;30.60;45.10;100665.25;5015836;28;20417;-54
2022/08/05 12:13:13;;;;;;;8.02;2.97;;;;;;;30.61;44.01;100657.94;5021228;28;20510;-55
2022/08/05 12:15:44;;;;;;;2.60;2.30;;;;;;;30.83;42.58;100658.41;5009693;28;20077;-57
2022/08/05 12:18:17;;;;;;;3.38;2.08;;;;;;;30.93;43.82;100658.75;5016985;28;20652;-58
2022/08/05 12:20:46;;;;;;;5.63;2.15;;;;;;;30.99;43.28;100664.13;5012599;28;20058;-56